Terminal Aerodrome Forecast
Issued by NWS

Home | Current Version | Previous Version | Text Only | Print | Product List | Glossary On
Versions: 1 2 3 4 5 6 7 8 9 10 11 12 13 14 15 16
000
FTUS46 KSGX 100901 AAA
TAFCRQ
TAF AMD
KCRQ 100901Z 1009/1106 VRB03KT 4SM BR OVC012
     FM101700 VRB04KT P6SM SCT015
     FM102030 26008KT P6SM FEW015
     FM110100 VRB05KT P6SM BKN015=

USA.gov is the U.S. government's official web portal to all federal, state and local government web resources and services.